Bethel, CT

2:33 PM EDT on August 29, 2016 (GMT -0400)
| | Change Station

Elev -9999 ft 0.00 °N, 0.00 °E | Updated

Clear
Clear
84 °F
Feels Like 83 °F
N
10
Wind Variable Wind from NNW
Gusts mph

Today
High -- | Low -- °F
--% Chance of Precip.
Yesterday
High -- | Low -- °F
Precip. -- in
Pressure 30.11 in
Visibility 10.0 miles
Clouds Clear
Heat Index 83 °F
Dew Point 57 °F
Humidity 41%
Rainfall --
Snow Depth Not available.
6:17 AM 7:30 PM
Waning Crescent, 7% visible
METAR KDXR 291753Z 32010KT 10SM CLR 29/14 A3011 RMK AO2 WSHFT 1733 SLP194 T02890144 10289 20222 58007
Pressure 30.11 in
Visibility 10.0 miles
Clouds Clear
Heat Index 83 °F
Dew Point 57 °F
Humidity 41%
Rainfall --
Snow Depth Not available.
6:17 AM 7:30 PM
Waning Crescent, 7% visible
METAR KDXR 291753Z 32010KT 10SM CLR 29/14 A3011 RMK AO2 WSHFT 1733 SLP194 T02890144 10289 20222 58007

10-Day Weather Forecast

Almanac

Astronomy

Aug. 29, 2016 Rise Set
Actual Time
Civil Twilight
Nautical Twilight
Astronomical Twilight
Moon
Length of Visible Light
Length of Day
Tomorrow will be .
, % of the Moon is Illuminated

Today's Extremes

State Highs State Lows

Community

WunderPhotos

Upload Photos

1,935,685 photos uploaded!

WunderBlog® & News

Nearby

Air Quality

  Air Quality AQ Index Pollutant
Not available.

Snow Depth

Station Depth Elevation

Earthquake Activity

City Distance Mag. Time & Date
Minimum magnitude displayed is 2.5.

Coastal Water Temperatures

Place Temperature

Stations

Nearby Weather Stations

Station Location Temp. Windchill Dew Point Humidity Wind Precip. Elev Updated Type
                   

Watches & Warnings

There are currently no watches in effect.